Time;durP1;ratioP1;P1;durP2;ratioP2;P2;SDS_P1;SDS_P2;PMS_P1;PMS_P2;Temp;Humidity;BMP_temperature;BMP_pressure;BME280_temperature;BME280_humidity;BME280_pressure;Samples;Min_cycle;Max_cycle;Signal;HPM_P1;HPM_P2
2023/03/27 00:00:58;;;;;;;8.90;3.28;;;3.10;99.90;;;;;;6212934;23;20338;-84
2023/03/27 00:03:25;;;;;;;8.43;3.47;;;3.20;99.90;;;;;;6212684;23;20377;-85
2023/03/27 00:05:59;;;;;;;7.10;2.77;;;3.10;99.90;;;;;;6195073;22;20436;-82
2023/03/27 00:08:25;;;;;;;11.45;3.50;;;3.10;99.90;;;;;;6211229;22;20377;-86
2023/03/27 00:10:52;;;;;;;7.53;3.03;;;3.20;99.90;;;;;;6238607;22;20358;-83
2023/03/27 00:13:18;;;;;;;11.30;3.55;;;3.30;99.90;;;;;;6215508;23;20798;-84
2023/03/27 00:15:45;;;;;;;6.55;2.72;;;3.10;99.90;;;;;;6214203;23;20413;-84
2023/03/27 00:18:12;;;;;;;8.32;3.22;;;3.10;99.90;;;;;;6212812;23;20436;-85
2023/03/27 00:20:38;;;;;;;7.82;2.97;;;3.20;99.90;;;;;;6214060;23;20366;-87
2023/03/27 00:23:05;;;;;;;6.88;2.67;;;3.10;99.90;;;;;;6213671;23;20770;-84
2023/03/27 00:25:32;;;;;;;5.80;2.83;;;3.20;99.90;;;;;;6187549;23;20366;-84
2023/03/27 00:27:58;;;;;;;6.03;2.75;;;3.30;99.90;;;;;;6186943;23;20451;-84
2023/03/27 00:30:28;;;;;;;7.70;2.85;;;3.30;99.90;;;;;;6214459;23;20428;-85
2023/03/27 00:32:57;;;;;;;6.60;2.33;;;3.30;99.90;;;;;;6214179;23;20347;-83
2023/03/27 00:35:25;;;;;;;5.13;2.40;;;3.30;99.90;;;;;;6214276;23;20836;-83
2023/03/27 00:37:51;;;;;;;8.07;2.80;;;3.30;99.90;;;;;;6213469;23;20361;-85
2023/03/27 00:40:17;;;;;;;8.33;2.67;;;3.20;99.90;;;;;;6214617;23;20334;-82
2023/03/27 00:42:48;;;;;;;6.27;2.30;;;3.10;99.90;;;;;;6214288;23;20417;-85
2023/03/27 00:45:27;;;;;;;5.85;2.90;;;3.10;99.90;;;;;;6214808;23;20327;-86
2023/03/27 00:47:59;;;;;;;6.68;2.67;;;3.20;99.90;;;;;;6213162;23;20361;-83
2023/03/27 00:50:33;;;;;;;6.97;2.30;;;3.20;99.90;;;;;;6214224;23;20342;-81
2023/03/27 00:53:25;;;;;;;3.83;2.70;;;3.20;99.90;;;;;;6214435;23;20342;-83
2023/03/27 00:55:53;;;;;;;4.30;2.35;;;3.10;99.90;;;;;;6214826;23;20818;-85
2023/03/27 00:58:37;;;;;;;6.25;2.45;;;3.20;99.90;;;;;;6215475;23;20357;-83
2023/03/27 01:01:03;;;;;;;5.72;2.42;;;3.20;99.90;;;;;;6215465;23;20326;-82
2023/03/27 01:03:31;;;;;;;4.70;2.40;;;3.10;99.90;;;;;;6215840;23;20353;-82
2023/03/27 01:05:59;;;;;;;5.28;2.55;;;3.10;99.90;;;;;;6214399;23;20344;-84
2023/03/27 01:08:27;;;;;;;5.60;2.50;;;3.20;99.90;;;;;;6214969;23;20789;-83
2023/03/27 01:11:11;;;;;;;5.22;2.30;;;3.30;99.90;;;;;;6215155;23;20428;-82
2023/03/27 01:14:02;;;;;;;3.47;2.10;;;3.30;99.90;;;;;;6216880;23;20408;-83
2023/03/27 01:16:44;;;;;;;6.88;2.30;;;3.40;99.90;;;;;;6215775;23;20370;-83
2023/03/27 01:19:31;;;;;;;4.37;2.67;;;3.40;99.90;;;;;;6216602;23;20342;-83
2023/03/27 01:22:28;;;;;;;5.53;2.65;;;3.50;99.90;;;;;;6217688;23;20362;-82
2023/03/27 01:25:01;;;;;;;3.25;2.13;;;3.50;99.90;;;;;;6216008;23;20377;-82
2023/03/27 01:27:48;;;;;;;3.65;2.20;;;3.60;99.90;;;;;;6216484;23;20334;-82
2023/03/27 01:30:20;;;;;;;4.70;2.90;;;3.50;99.90;;;;;;6216337;23;20351;-83
2023/03/27 01:33:13;;;;;;;4.32;2.33;;;3.50;99.90;;;;;;6214673;23;20342;-84
2023/03/27 01:35:48;;;;;;;5.85;3.03;;;3.50;99.90;;;;;;6214294;23;20373;-84
2023/03/27 01:38:35;;;;;;;3.85;2.35;;;3.60;99.90;;;;;;6214354;23;20444;-85
2023/03/27 01:41:13;;;;;;;4.93;2.58;;;3.60;99.90;;;;;;6215803;23;20337;-83
2023/03/27 01:43:52;;;;;;;3.72;2.15;;;3.60;99.90;;;;;;6215020;23;20358;-83
2023/03/27 01:46:27;;;;;;;3.10;2.33;;;3.70;99.90;;;;;;6214684;23;20361;-82
2023/03/27 01:49:00;;;;;;;5.38;2.40;;;3.60;99.90;;;;;;6188322;23;20460;-85
2023/03/27 01:51:38;;;;;;;5.15;2.30;;;3.70;99.90;;;;;;6186807;23;20345;-85
2023/03/27 01:54:19;;;;;;;3.85;2.67;;;3.60;99.90;;;;;;6189954;23;20357;-86
2023/03/27 01:56:54;;;;;;;6.93;2.78;;;3.70;99.90;;;;;;6186253;23;20400;-84
2023/03/27 01:59:23;;;;;;;4.95;2.67;;;3.70;99.90;;;;;;6213715;23;20812;-84
2023/03/27 02:02:01;;;;;;;4.63;2.42;;;3.60;99.90;;;;;;6210472;23;20462;-84
2023/03/27 02:04:56;;;;;;;4.95;2.38;;;3.60;99.90;;;;;;6212113;23;20353;-84
2023/03/27 02:07:29;;;;;;;4.15;2.60;;;3.50;99.90;;;;;;6183684;23;20682;-83
2023/03/27 02:09:59;;;;;;;5.10;2.75;;;3.50;99.90;;;;;;6213941;23;20415;-83
2023/03/27 02:12:33;;;;;;;5.25;2.78;;;3.60;99.90;;;;;;6187885;23;20673;-84
2023/03/27 02:15:06;;;;;;;5.15;2.90;;;3.60;99.90;;;;;;6187481;23;20334;-85
2023/03/27 02:17:37;;;;;;;4.93;2.50;;;3.60;99.90;;;;;;6187214;23;20346;-85
2023/03/27 02:20:15;;;;;;;3.90;2.40;;;3.60;99.90;;;;;;6213914;23;20378;-84
2023/03/27 02:22:42;;;;;;;5.10;2.42;;;3.50;99.90;;;;;;6215222;23;20402;-83
2023/03/27 02:25:33;;;;;;;3.90;2.60;;;3.40;99.90;;;;;;6186447;23;20366;-83
2023/03/27 02:28:01;;;;;;;4.10;2.27;;;3.40;99.90;;;;;;6186914;23;20436;-84
2023/03/27 02:30:33;;;;;;;5.05;2.47;;;3.20;99.90;;;;;;6213866;23;20956;-84
2023/03/27 02:33:23;;;;;;;3.25;2.13;;;3.20;99.90;;;;;;6216452;23;20340;-84
2023/03/27 02:36:27;;;;;;;5.20;2.33;;;3.10;99.90;;;;;;6222271;23;20327;-82
2023/03/27 02:39:01;;;;;;;4.30;2.60;;;3.00;99.90;;;;;;6221288;23;20413;-83
2023/03/27 02:41:36;;;;;;;3.45;2.42;;;3.10;99.90;;;;;;6196645;23;20430;-82
2023/03/27 02:44:32;;;;;;;4.88;2.38;;;3.20;99.90;;;;;;6198932;23;20346;-82
2023/03/27 02:47:16;;;;;;;3.72;2.08;;;3.20;99.90;;;;;;6197645;23;20425;-82
2023/03/27 02:49:51;;;;;;;4.93;2.55;;;3.20;99.90;;;;;;6224162;23;20365;-84
2023/03/27 02:52:23;;;;;;;3.83;2.38;;;3.10;99.90;;;;;;6222011;23;20409;-83
2023/03/27 02:57:20;;;;;;;4.18;2.72;;;2.80;99.90;;;;;;6206357;22;20394;-83
2023/03/27 02:59:51;;;;;;;5.23;2.80;;;2.70;99.90;;;;;;6243747;23;20463;-84
2023/03/27 03:02:23;;;;;;;4.25;2.80;;;2.70;99.90;;;;;;6243697;23;20371;-84
2023/03/27 03:05:00;;;;;;;3.80;2.80;;;2.50;99.90;;;;;;6244744;23;20347;-84
2023/03/27 03:07:26;;;;;;;6.93;2.90;;;2.30;99.90;;;;;;6244416;23;20809;-80
2023/03/27 03:09:53;;;;;;;5.47;2.80;;;2.30;99.90;;;;;;6237821;23;20375;-82
2023/03/27 03:12:22;;;;;;;3.70;2.80;;;2.20;99.90;;;;;;6216604;23;20352;-84
2023/03/27 03:14:48;;;;;;;4.82;2.20;;;2.20;99.90;;;;;;6243724;23;20354;-84
2023/03/27 03:17:14;;;;;;;3.60;2.80;;;2.10;99.90;;;;;;6215843;23;20455;-82
2023/03/27 03:19:40;;;;;;;3.90;2.42;;;2.10;99.90;;;;;;6243289;23;20386;-83
2023/03/27 03:22:06;;;;;;;3.33;2.40;;;2.10;99.90;;;;;;6244505;23;20429;-83
2023/03/27 03:24:34;;;;;;;4.10;2.40;;;2.10;99.90;;;;;;6217724;23;20421;-83
2023/03/27 03:27:00;;;;;;;6.10;2.30;;;2.10;99.90;;;;;;6220963;23;20468;-82
2023/03/27 03:29:34;;;;;;;3.78;2.38;;;1.80;99.90;;;;;;6246782;23;20367;-82
2023/03/27 03:32:00;;;;;;;2.22;2.03;;;1.90;99.90;;;;;;6221792;23;20356;-83
2023/03/27 03:34:26;;;;;;;2.95;2.35;;;1.80;99.90;;;;;;6249109;23;20382;-82
2023/03/27 03:36:54;;;;;;;2.78;2.08;;;1.70;99.90;;;;;;6223643;23;20422;-83
2023/03/27 03:39:20;;;;;;;5.35;2.33;;;1.60;99.90;;;;;;6222611;23;20356;-82
2023/03/27 03:41:46;;;;;;;4.53;2.25;;;1.60;99.90;;;;;;6250188;23;20451;-82
2023/03/27 03:44:12;;;;;;;2.40;2.20;;;1.60;99.90;;;;;;6246898;23;20355;-83
2023/03/27 03:46:38;;;;;;;3.27;2.37;;;1.50;99.90;;;;;;6217747;23;20359;-82
2023/03/27 03:49:05;;;;;;;4.40;2.28;;;1.40;99.90;;;;;;6244675;23;20422;-82
2023/03/27 03:51:33;;;;;;;5.18;2.53;;;1.30;99.90;;;;;;6244423;23;20347;-83
2023/03/27 03:54:00;;;;;;;3.50;2.00;;;1.20;99.90;;;;;;6244267;23;20345;-83
2023/03/27 03:56:28;;;;;;;2.83;1.90;;;1.20;99.90;;;;;;6217535;23;20443;-83
2023/03/27 03:58:54;;;;;;;2.65;2.00;;;1.20;99.90;;;;;;6218566;23;20406;-81
2023/03/27 04:01:21;;;;;;;3.28;2.03;;;1.10;99.90;;;;;;6217536;23;20361;-82
2023/03/27 04:03:48;;;;;;;4.00;2.33;;;1.00;99.90;;;;;;6246327;23;20336;-82
2023/03/27 04:06:16;;;;;;;2.60;2.03;;;0.90;99.90;;;;;;6246435;23;20391;-82
2023/03/27 04:08:43;;;;;;;3.53;2.00;;;0.80;99.90;;;;;;6218252;23;20431;-84
2023/03/27 04:11:09;;;;;;;3.55;2.20;;;0.70;99.90;;;;;;6246423;23;20352;-85
2023/03/27 04:13:35;;;;;;;4.05;2.20;;;0.60;99.90;;;;;;6247246;23;20435;-81
2023/03/27 04:16:01;;;;;;;3.10;1.90;;;0.50;99.90;;;;;;6250389;23;20865;-83
2023/03/27 04:18:31;;;;;;;2.75;1.90;;;0.40;99.90;;;;;;6217097;23;20363;-81
2023/03/27 04:20:58;;;;;;;3.50;2.40;;;0.40;99.90;;;;;;6217878;23;20512;-82
2023/03/27 04:23:29;;;;;;;3.03;2.20;;;0.30;99.90;;;;;;6243402;23;20889;-82
2023/03/27 04:25:58;;;;;;;2.75;2.47;;;0.30;99.90;;;;;;6243937;23;20361;-83
2023/03/27 04:28:26;;;;;;;4.85;2.60;;;0.20;99.90;;;;;;6219897;23;20372;-83
2023/03/27 04:30:52;;;;;;;5.85;2.35;;;0.10;99.90;;;;;;6219931;23;20366;-82
2023/03/27 04:33:18;;;;;;;4.38;2.50;;;0.10;99.90;;;;;;6243298;23;21103;-83
2023/03/27 04:35:45;;;;;;;4.80;2.80;;;0.10;99.90;;;;;;6243812;23;20402;-82
2023/03/27 04:38:12;;;;;;;4.70;2.30;;;0.30;99.90;;;;;;6216608;23;20361;-82
2023/03/27 04:40:38;;;;;;;3.60;2.58;;;0.20;99.90;;;;;;6245878;23;20352;-83
2023/03/27 04:43:04;;;;;;;3.80;2.47;;;0.00;99.90;;;;;;6243692;23;20386;-84
2023/03/27 04:45:31;;;;;;;2.10;1.90;;;0.00;99.90;;;;;;6243900;23;20803;-83
2023/03/27 04:47:57;;;;;;;3.63;2.20;;;0.00;99.90;;;;;;6242977;23;20355;-82
2023/03/27 04:50:23;;;;;;;3.42;2.10;;;0.00;99.90;;;;;;6217685;23;20367;-83
2023/03/27 04:52:50;;;;;;;4.57;2.40;;;-0.10;99.90;;;;;;6244342;23;20379;-82
2023/03/27 04:55:17;;;;;;;3.20;2.38;;;-0.20;99.90;;;;;;6244488;23;20351;-81
2023/03/27 04:57:46;;;;;;;5.97;2.93;;;-0.20;99.90;;;;;;6245672;23;20380;-81
2023/03/27 05:00:17;;;;;;;3.03;2.40;;;-0.10;99.90;;;;;;6245163;23;20423;-81
2023/03/27 05:02:44;;;;;;;4.60;2.40;;;-0.20;99.90;;;;;;6217550;23;20380;-83
2023/03/27 05:05:10;;;;;;;3.53;2.33;;;-0.20;99.90;;;;;;6244276;23;20419;-82
2023/03/27 05:07:38;;;;;;;3.85;2.33;;;-0.30;99.90;;;;;;6243192;23;20344;-84
2023/03/27 05:10:05;;;;;;;5.28;3.00;;;-0.20;99.90;;;;;;6242588;23;20348;-83
2023/03/27 05:12:31;;;;;;;2.97;2.38;;;-0.20;99.90;;;;;;6214336;23;20815;-82
2023/03/27 05:14:58;;;;;;;3.10;2.70;;;-0.20;99.90;;;;;;6242996;23;20794;-84
2023/03/27 05:17:24;;;;;;;3.37;2.57;;;-0.20;99.90;;;;;;6216662;23;20494;-83
2023/03/27 05:19:50;;;;;;;3.65;2.72;;;-0.10;99.90;;;;;;6244530;23;20364;-83
2023/03/27 05:22:16;;;;;;;4.45;2.78;;;-0.10;99.90;;;;;;6244497;23;20463;-84
2023/03/27 05:24:42;;;;;;;3.60;2.42;;;0.10;99.90;;;;;;6253468;23;20348;-82
2023/03/27 05:27:09;;;;;;;2.53;2.30;;;0.50;99.90;;;;;;6233345;23;20367;-85
2023/03/27 05:29:34;;;;;;;2.75;2.47;;;0.70;99.90;;;;;;6223764;23;20364;-84
2023/03/27 05:32:00;;;;;;;6.23;2.93;;;0.80;99.90;;;;;;6244616;23;20516;-83
2023/03/27 05:34:29;;;;;;;4.95;2.55;;;0.80;99.90;;;;;;6243299;23;20820;-83
2023/03/27 05:36:56;;;;;;;3.88;2.60;;;0.90;99.90;;;;;;6242439;23;20340;-85
2023/03/27 05:39:24;;;;;;;3.33;2.30;;;1.10;99.90;;;;;;6215536;23;20353;-83
2023/03/27 05:41:50;;;;;;;3.50;2.70;;;1.20;99.90;;;;;;6242609;23;20719;-82
2023/03/27 05:44:15;;;;;;;4.03;2.57;;;1.20;99.90;;;;;;6244130;23;20368;-84
2023/03/27 05:46:42;;;;;;;4.37;2.67;;;1.30;99.90;;;;;;6217413;23;20352;-83
2023/03/27 05:49:08;;;;;;;2.58;2.00;;;1.20;99.90;;;;;;6217535;23;20372;-83
2023/03/27 05:51:34;;;;;;;3.83;2.60;;;1.70;99.90;;;;;;6217841;23;20371;-83
2023/03/27 05:54:00;;;;;;;6.82;2.60;;;1.60;99.90;;;;;;6243514;23;20720;-84
2023/03/27 05:56:26;;;;;;;6.28;2.60;;;1.80;99.90;;;;;;6242803;23;20399;-85
2023/03/27 05:58:51;;;;;;;4.80;2.43;;;1.90;99.90;;;;;;6216680;23;20676;-86
2023/03/27 06:01:17;;;;;;;2.95;2.30;;;2.10;99.90;;;;;;6216202;23;20702;-85
2023/03/27 06:03:43;;;;;;;4.05;2.35;;;2.50;99.90;;;;;;6243388;23;20364;-84
2023/03/27 06:06:11;;;;;;;3.97;2.40;;;2.60;99.90;;;;;;6216242;23;20399;-86
2023/03/27 06:08:37;;;;;;;4.38;2.60;;;2.40;99.90;;;;;;6215245;23;20348;-86
2023/03/27 06:11:13;;;;;;;3.37;2.40;;;2.50;99.90;;;;;;6243063;23;20347;-88
2023/03/27 06:13:39;;;;;;;3.80;2.60;;;2.30;99.90;;;;;;6243285;23;20336;-86
2023/03/27 06:16:06;;;;;;;4.50;2.42;;;2.40;99.90;;;;;;6216012;23;20803;-84
2023/03/27 06:18:32;;;;;;;4.47;2.53;;;2.60;99.90;;;;;;6242750;23;20340;-87
2023/03/27 06:20:58;;;;;;;3.22;2.30;;;2.80;99.90;;;;;;6243136;23;20344;-83
2023/03/27 06:23:24;;;;;;;2.90;2.60;;;3.10;99.90;;;;;;6215257;23;20376;-84
2023/03/27 06:25:51;;;;;;;3.70;2.40;;;3.30;99.90;;;;;;6216560;23;20349;-86
2023/03/27 06:28:18;;;;;;;5.03;2.97;;;3.20;99.90;;;;;;6215113;23;20358;-85
2023/03/27 06:30:48;;;;;;;4.68;2.33;;;3.30;99.90;;;;;;6215742;23;20348;-78
2023/03/27 06:33:14;;;;;;;3.13;2.20;;;3.40;99.90;;;;;;6243554;23;20352;-80
2023/03/27 06:35:44;;;;;;;4.88;2.50;;;3.30;99.90;;;;;;6248636;23;20356;-84
2023/03/27 06:38:09;;;;;;;4.40;2.55;;;3.40;99.90;;;;;;6247506;23;20357;-82
2023/03/27 06:40:35;;;;;;;4.88;2.38;;;3.60;99.90;;;;;;6247084;23;20353;-81
2023/03/27 06:43:04;;;;;;;4.40;2.20;;;4.10;99.90;;;;;;6217002;23;20375;-83
2023/03/27 06:45:42;;;;;;;3.45;2.40;;;4.20;99.90;;;;;;6243877;23;20343;-82
2023/03/27 06:48:09;;;;;;;7.47;2.40;;;4.20;99.90;;;;;;6244219;23;20411;-84
2023/03/27 06:50:35;;;;;;;4.43;2.40;;;4.00;99.90;;;;;;6244009;23;20339;-80
2023/03/27 06:53:02;;;;;;;4.20;2.30;;;4.20;99.90;;;;;;6221253;23;20395;-82
2023/03/27 06:55:30;;;;;;;6.35;2.35;;;3.90;99.90;;;;;;6242581;23;20347;-82
2023/03/27 06:57:57;;;;;;;2.67;2.20;;;3.80;99.90;;;;;;6241363;23;20348;-83
2023/03/27 07:00:27;;;;;;;3.15;2.20;;;3.70;99.90;;;;;;6241769;23;20819;-84
2023/03/27 07:02:58;;;;;;;4.90;2.17;;;3.90;99.90;;;;;;6242933;23;20371;-85
2023/03/27 07:05:25;;;;;;;3.72;2.00;;;5.00;99.90;;;;;;6241283;23;20419;-87
2023/03/27 07:07:51;;;;;;;3.63;2.00;;;6.50;99.90;;;;;;6240774;23;20364;-87
2023/03/27 07:10:17;;;;;;;3.70;1.70;;;7.10;99.90;;;;;;6241827;23;20442;-82
2023/03/27 07:12:54;;;;;;;3.38;1.88;;;8.20;99.90;;;;;;6243127;23;20406;-85
2023/03/27 07:15:23;;;;;;;4.40;1.63;;;8.70;99.90;;;;;;6214564;23;20424;-85
2023/03/27 07:18:00;;;;;;;3.10;1.83;;;8.70;99.90;;;;;;6241242;23;20344;-84
2023/03/27 07:20:27;;;;;;;4.33;1.70;;;7.80;99.90;;;;;;6244165;23;20344;-83
2023/03/27 07:22:55;;;;;;;3.50;2.00;;;6.90;99.90;;;;;;6214483;23;20368;-84
2023/03/27 07:25:21;;;;;;;3.40;1.80;;;6.00;99.90;;;;;;6241950;23;20399;-83
2023/03/27 07:27:46;;;;;;;4.40;1.80;;;5.30;99.90;;;;;;6242919;23;20348;-87
2023/03/27 07:30:13;;;;;;;5.80;2.23;;;4.90;99.90;;;;;;6216190;23;20364;-83
2023/03/27 07:32:41;;;;;;;5.60;2.10;;;4.50;99.90;;;;;;6214458;23;20427;-82
2023/03/27 07:35:08;;;;;;;3.17;2.00;;;4.50;99.90;;;;;;6241299;23;20375;-84
2023/03/27 07:37:36;;;;;;;4.65;2.00;;;4.60;99.90;;;;;;6240360;23;20402;-85
2023/03/27 07:40:03;;;;;;;4.70;1.83;;;5.00;99.90;;;;;;6241570;23;20462;-83
2023/03/27 07:42:29;;;;;;;3.28;1.75;;;5.60;99.90;;;;;;6241930;23;20368;-84
2023/03/27 07:44:55;;;;;;;3.70;1.50;;;6.60;99.90;;;;;;6243393;23;20423;-83
2023/03/27 07:47:20;;;;;;;4.53;1.60;;;7.50;99.90;;;;;;6242232;23;20847;-83
2023/03/27 07:49:46;;;;;;;3.17;1.63;;;8.20;99.90;;;;;;6243139;23;20427;-82
2023/03/27 07:52:12;;;;;;;4.13;1.60;;;8.80;99.90;;;;;;6240829;23;20344;-83
2023/03/27 07:54:37;;;;;;;3.70;1.70;;;9.20;99.90;;;;;;6245690;23;20703;-81
2023/03/27 07:57:04;;;;;;;3.50;1.60;;;9.30;99.90;;;;;;6219396;23;20368;-82
2023/03/27 07:59:29;;;;;;;5.85;2.05;;;9.60;99.90;;;;;;6249115;23;20377;-82
2023/03/27 08:01:56;;;;;;;5.55;1.70;;;9.80;99.90;;;;;;6247756;23;20368;-82
2023/03/27 08:04:22;;;;;;;2.95;1.60;;;9.00;99.90;;;;;;6248814;23;20478;-82
2023/03/27 08:06:50;;;;;;;4.20;1.83;;;7.70;99.90;;;;;;6245262;23;20345;-81
2023/03/27 08:09:16;;;;;;;3.15;1.83;;;7.90;99.90;;;;;;6220396;23;20847;-83
2023/03/27 08:11:43;;;;;;;4.70;1.70;;;9.10;99.90;;;;;;6257641;23;20364;-82
2023/03/27 08:14:08;;;;;;;2.55;1.50;;;9.70;99.90;;;;;;6238744;23;20389;-83
2023/03/27 08:16:35;;;;;;;4.30;1.67;;;9.60;99.90;;;;;;6254402;23;20354;-82
2023/03/27 08:19:03;;;;;;;3.40;1.60;;;8.90;99.90;;;;;;6250500;23;20788;-82
2023/03/27 08:21:35;;;;;;;3.00;1.52;;;;;;;;;;6245862;23;20403;-83
2023/03/27 08:24:06;;;;;;;3.65;1.90;;;;;;;;;;6245792;23;20460;-82
2023/03/27 08:26:32;;;;;;;3.70;1.60;;;7.40;99.90;;;;;;6245604;23;20332;-81
2023/03/27 08:28:59;;;;;;;4.83;1.53;;;7.40;99.90;;;;;;6245719;23;20348;-82
2023/03/27 08:31:27;;;;;;;3.75;1.73;;;7.60;99.90;;;;;;6248229;23;20617;-82
2023/03/27 08:33:53;;;;;;;3.67;1.30;;;8.00;99.90;;;;;;6219684;23;20714;-81
2023/03/27 08:36:19;;;;;;;3.03;1.30;;;8.20;99.90;;;;;;6217522;23;20406;-82
2023/03/27 08:38:46;;;;;;;2.75;1.30;;;8.50;99.90;;;;;;6243378;23;20720;-82
2023/03/27 08:41:25;;;;;;;2.10;1.27;;;8.90;99.90;;;;;;6244437;23;20337;-82
2023/03/27 08:43:55;;;;;;;3.85;1.40;;;9.10;99.90;;;;;;6244603;23;20353;-83
2023/03/27 08:46:46;;;;;;;2.65;1.35;;;9.40;99.90;;;;;;6245347;23;20337;-82
2023/03/27 08:49:20;;;;;;;2.25;1.20;;;9.50;99.90;;;;;;6246423;23;20352;-81
2023/03/27 08:51:52;;;;;;;1.92;1.25;;;8.90;99.90;;;;;;6246021;23;20344;-84
2023/03/27 08:54:21;;;;;;;1.90;1.13;;;8.00;99.90;;;;;;6248391;23;20353;-81
2023/03/27 08:56:47;;;;;;;3.38;1.50;;;7.70;99.90;;;;;;6218496;23;20388;-82
2023/03/27 08:59:26;;;;;;;2.42;1.60;;;8.50;99.90;;;;;;6214526;23;20410;-82
2023/03/27 09:02:09;;;;;;;2.30;1.20;;;7.80;99.90;;;;;;6241589;23;20866;-82
2023/03/27 09:05:20;;;;;;;2.10;1.10;;;7.40;99.90;;;;;;6241113;23;20394;-82
2023/03/27 09:08:12;;;;;;;2.00;1.30;;;7.80;99.90;;;;;;6087022;23;20364;-81
2023/03/27 09:10:51;;;;;;;2.53;1.55;;;7.50;99.90;;;;;;6088055;23;21225;-81
2023/03/27 09:13:21;;;;;;;2.38;1.42;;;7.50;99.90;;;;;;6205862;23;20842;-83
2023/03/27 09:15:59;;;;;;;2.58;1.40;;;8.50;99.90;;;;;;6238775;23;20384;-82
2023/03/27 09:18:26;;;;;;;3.28;1.30;;;9.00;99.90;;;;;;6238934;23;20423;-82
2023/03/27 09:21:05;;;;;;;1.73;1.30;;;8.60;99.90;;;;;;6239715;23;20340;-83
2023/03/27 09:23:40;;;;;;;2.10;1.30;;;7.60;99.90;;;;;;6242114;23;20403;-82
2023/03/27 09:26:11;;;;;;;2.65;1.60;;;7.40;99.90;;;;;;6239966;23;20380;-84
2023/03/27 09:28:44;;;;;;;2.00;1.30;;;7.70;99.90;;;;;;6245475;23;20333;-82
2023/03/27 09:31:55;;;;;;;3.10;1.60;;;9.00;99.90;;;;;;6214777;23;20804;-82
2023/03/27 09:34:30;;;;;;;2.83;1.40;;;8.50;99.90;;;;;;6207947;23;20711;-84
2023/03/27 09:36:58;;;;;;;4.22;1.60;;;7.60;99.90;;;;;;6214212;23;20731;-81
2023/03/27 09:39:37;;;;;;;2.03;1.60;;;7.20;99.90;;;;;;6238240;23;20356;-80
2023/03/27 09:42:15;;;;;;;3.87;1.60;;;7.40;99.90;;;;;;6213767;23;20379;-82
2023/03/27 09:44:44;;;;;;;2.22;1.40;;;8.40;99.90;;;;;;6240595;23;20343;-82
2023/03/27 09:47:21;;;;;;;2.53;1.20;;;9.50;99.90;;;;;;6241490;23;20354;-83
2023/03/27 09:49:53;;;;;;;3.90;1.23;;;10.80;99.90;;;;;;6237304;23;20451;-81
2023/03/27 09:52:36;;;;;;;1.73;1.20;;;11.20;99.90;;;;;;6214500;23;20351;-81
2023/03/27 09:55:23;;;;;;;3.30;1.50;;;10.80;99.90;;;;;;6214885;23;20356;-82
2023/03/27 09:57:53;;;;;;;3.55;1.35;;;10.70;99.90;;;;;;6213524;23;20360;-81
2023/03/27 10:00:33;;;;;;;2.17;1.40;;;10.60;99.90;;;;;;6214590;23;20340;-82
2023/03/27 10:03:06;;;;;;;3.90;1.43;;;11.10;99.90;;;;;;6241743;23;20404;-83
2023/03/27 10:05:33;;;;;;;3.45;1.48;;;10.80;99.90;;;;;;6214841;23;20424;-82
2023/03/27 10:07:59;;;;;;;4.15;1.63;;;9.70;99.90;;;;;;6240887;23;20348;-81
2023/03/27 10:10:31;;;;;;;2.05;1.33;;;9.00;99.90;;;;;;6214674;23;20948;-82
2023/03/27 10:12:59;;;;;;;2.95;1.50;;;8.20;99.90;;;;;;6215051;23;20351;-82
2023/03/27 10:15:37;;;;;;;2.92;1.58;;;7.40;99.90;;;;;;6210354;23;20375;-82
2023/03/27 10:18:07;;;;;;;2.42;1.35;;;6.70;99.90;;;;;;6212245;23;20352;-82
2023/03/27 10:20:33;;;;;;;3.07;1.47;;;7.70;99.90;;;;;;6213628;23;20356;-81
2023/03/27 10:23:06;;;;;;;3.67;1.30;;;8.60;99.90;;;;;;6213783;23;20399;-82
2023/03/27 10:25:38;;;;;;;2.47;1.17;;;8.40;99.90;;;;;;6214490;23;20671;-81
2023/03/27 10:28:26;;;;;;;3.45;1.65;;;8.70;99.90;;;;;;6213438;23;20360;-81
2023/03/27 10:31:00;;;;;;;1.98;1.30;;;8.10;99.90;;;;;;6241523;23;20656;-83
2023/03/27 10:33:35;;;;;;;2.85;1.20;;;7.60;99.90;;;;;;6239107;23;20340;-83
2023/03/27 10:36:03;;;;;;;2.80;1.13;;;8.70;99.90;;;;;;6214093;23;20345;-82
2023/03/27 10:38:31;;;;;;;2.47;1.20;;;10.30;99.90;;;;;;6214229;23;20810;-82
2023/03/27 10:40:57;;;;;;;2.90;1.10;;;11.20;99.90;;;;;;6241163;23;20384;-83
2023/03/27 10:43:32;;;;;;;2.58;1.15;;;12.30;99.90;;;;;;6214380;23;20505;-81
2023/03/27 10:46:05;;;;;;;1.90;1.20;;;11.80;99.90;;;;;;6215049;23;20420;-82
2023/03/27 10:48:45;;;;;;;2.75;1.40;;;10.20;99.90;;;;;;6242034;23;20348;-82
2023/03/27 10:51:35;;;;;;;5.25;1.80;;;9.50;99.90;;;;;;6241811;23;20358;-81
2023/03/27 10:54:15;;;;;;;3.53;1.50;;;;;;;;;;6214606;23;20356;-81
2023/03/27 10:57:01;;;;;;;4.32;1.77;;;6.90;99.90;;;;;;6214200;23;20380;-82
2023/03/27 10:59:30;;;;;;;4.90;1.77;;;;;;;;;;6229976;23;20364;-82
2023/03/27 11:02:28;;;;;;;6.88;2.00;;;6.50;99.90;;;;;;6231802;23;20395;-82
2023/03/27 11:05:11;;;;;;;5.55;2.10;;;6.50;99.90;;;;;;6242155;23;20344;-82
2023/03/27 11:07:55;;;;;;;11.20;5.22;;;6.60;99.90;;;;;;6211882;23;20398;-82
2023/03/27 11:10:23;;;;;;;4.88;1.60;;;7.00;99.90;;;;;;6213949;23;20410;-82
2023/03/27 11:13:02;;;;;;;4.10;2.30;;;7.00;99.90;;;;;;6213305;23;20353;-82
2023/03/27 11:15:35;;;;;;;5.35;1.85;;;8.10;99.90;;;;;;6213092;23;20877;-83
2023/03/27 11:18:28;;;;;;;3.05;1.50;;;9.70;99.90;;;;;;6212713;23;20419;-82
2023/03/27 11:21:00;;;;;;;4.55;1.70;;;10.70;99.90;;;;;;6200191;23;20807;-84
2023/03/27 11:23:33;;;;;;;3.40;1.38;;;11.40;99.90;;;;;;6213624;23;20426;-83
2023/03/27 11:26:01;;;;;;;5.25;1.40;;;11.10;99.90;;;;;;6217766;23;20364;-84
2023/03/27 11:29:09;;;;;;;3.45;1.40;;;11.50;99.90;;;;;;6243690;23;20348;-83
2023/03/27 11:31:44;;;;;;;6.57;2.03;;;12.20;99.90;;;;;;6217290;23;20348;-83
2023/03/27 11:34:21;;;;;;;3.60;1.38;;;12.70;99.90;;;;;;6244475;23;20359;-84
2023/03/27 11:37:00;;;;;;;3.92;1.50;;;12.00;99.90;;;;;;6244535;23;20435;-83
2023/03/27 11:39:44;;;;;;;3.65;1.30;;;9.60;99.90;;;;;;6216948;23;20352;-82
2023/03/27 11:42:19;;;;;;;3.55;1.50;;;8.60;99.90;;;;;;6246310;23;20378;-83
2023/03/27 11:44:45;;;;;;;5.60;1.23;;;;;;;;;;6217271;23;20368;-82
2023/03/27 11:47:44;;;;;;;5.63;1.90;;;7.60;99.90;;;;;;6248137;23;20337;-82
2023/03/27 11:50:34;;;;;;;2.63;1.30;;;7.20;99.90;;;;;;6220854;23;20435;-82
2023/03/27 11:53:19;;;;;;;3.17;1.50;;;7.00;99.90;;;;;;6250339;23;20340;-83
2023/03/27 11:55:45;;;;;;;3.20;1.52;;;6.80;99.90;;;;;;6221187;23;20439;-82
2023/03/27 11:58:25;;;;;;;3.27;1.63;;;7.00;99.90;;;;;;6220989;23;20400;-83
2023/03/27 12:00:51;;;;;;;5.63;1.75;;;7.30;99.90;;;;;;6220610;23;20348;-83
2023/03/27 12:03:32;;;;;;;3.63;1.40;;;7.70;99.90;;;;;;6218121;23;20364;-83
2023/03/27 12:06:23;;;;;;;2.83;1.42;;;7.90;99.90;;;;;;6223434;23;20364;-83
2023/03/27 12:09:01;;;;;;;3.22;1.50;;;7.80;99.90;;;;;;6249102;23;20340;-83
2023/03/27 12:11:28;;;;;;;4.97;1.30;;;7.80;99.90;;;;;;6247162;23;20435;-83
2023/03/27 12:14:20;;;;;;;4.45;1.58;;;8.30;99.90;;;;;;6246945;23;20352;-86
2023/03/27 12:16:53;;;;;;;4.72;1.50;;;8.40;99.90;;;;;;6241977;23;20422;-85
2023/03/27 12:19:35;;;;;;;3.97;1.60;;;7.90;99.90;;;;;;6244424;23;20360;-83
2023/03/27 12:22:16;;;;;;;4.07;1.50;;;7.70;99.90;;;;;;6220924;23;20839;-83
2023/03/27 12:25:06;;;;;;;2.80;1.55;;;8.00;99.90;;;;;;6221049;23;20341;-84
2023/03/27 12:27:43;;;;;;;4.07;1.35;;;8.40;99.90;;;;;;6248332;23;20344;-83
2023/03/27 12:30:12;;;;;;;2.90;1.40;;;8.70;99.90;;;;;;6219845;23;20344;-84
2023/03/27 12:32:58;;;;;;;2.92;1.05;;;8.70;99.90;;;;;;6247718;23;20748;-83
2023/03/27 12:35:27;;;;;;;2.95;1.05;;;7.90;99.90;;;;;;6247612;23;20336;-83
2023/03/27 12:37:56;;;;;;;2.22;1.02;;;7.40;99.90;;;;;;6221257;23;20364;-82
2023/03/27 12:40:38;;;;;;;2.58;1.10;;;6.80;99.90;;;;;;6247484;23;20355;-84
2023/03/27 12:43:32;;;;;;;1.80;1.05;;;6.50;99.90;;;;;;6246166;23;20829;-85
2023/03/27 12:46:13;;;;;;;3.30;1.40;;;6.60;99.90;;;;;;6218685;23;20367;-85
2023/03/27 12:49:06;;;;;;;2.65;1.27;;;7.00;99.90;;;;;;6245152;23;20397;-83
2023/03/27 12:51:42;;;;;;;2.20;1.10;;;7.40;99.90;;;;;;6070345;23;20448;-82
2023/03/27 12:54:30;;;;;;;2.42;1.00;;;7.40;99.90;;;;;;6247959;23;20444;-80
2023/03/27 12:57:17;;;;;;;3.78;1.27;;;7.40;99.90;;;;;;6247135;23;20781;-86
2023/03/27 12:59:50;;;;;;;4.45;1.30;;;7.50;99.90;;;;;;6220590;23;20360;-82
2023/03/27 13:02:48;;;;;;;2.20;1.17;;;7.50;99.90;;;;;;6220314;23;20426;-82
2023/03/27 13:05:20;;;;;;;2.60;1.30;;;7.70;99.90;;;;;;6159624;23;20877;-83
2023/03/27 13:07:55;;;;;;;3.00;1.27;;;8.10;99.90;;;;;;6220793;23;20440;-83
2023/03/27 13:10:29;;;;;;;3.95;1.75;;;8.30;99.90;;;;;;6221056;23;20439;-83
2023/03/27 13:13:17;;;;;;;6.32;2.00;;;8.60;99.90;;;;;;6219704;23;20344;-83
2023/03/27 13:16:11;;;;;;;3.83;1.70;;;9.40;99.90;;;;;;6248297;23;20413;-84
2023/03/27 13:18:54;;;;;;;5.05;1.63;;;9.20;99.90;;;;;;6220710;23;20392;-84
2023/03/27 13:21:48;;;;;;;4.32;1.80;;;9.00;99.90;;;;;;6221641;23;20428;-83
2023/03/27 13:24:35;;;;;;;3.50;1.40;;;9.00;99.90;;;;;;6220196;23;20360;-83
2023/03/27 13:27:07;;;;;;;3.28;1.38;;;8.60;99.90;;;;;;6220880;23;20423;-84
2023/03/27 13:29:34;;;;;;;5.45;1.73;;;7.70;99.90;;;;;;6246511;23;20906;-84